sensor_id;sensor_type;location;lat;lon;timestamp;P1;durP1;ratioP1;P2;durP2;ratioP2
43857;SDS011;29507;51.284;5.758;2023-06-14T00:00:39;9.13;;;5.47;;
43857;SDS011;29507;51.284;5.758;2023-06-14T00:03:09;8.80;;;5.45;;
43857;SDS011;29507;51.284;5.758;2023-06-14T00:05:36;8.45;;;5.25;;
43857;SDS011;29507;51.284;5.758;2023-06-14T00:08:08;7.43;;;4.65;;
43857;SDS011;29507;51.284;5.758;2023-06-14T00:10:38;10.25;;;5.30;;
43857;SDS011;29507;51.284;5.758;2023-06-14T00:13:06;6.50;;;4.32;;
43857;SDS011;29507;51.284;5.758;2023-06-14T00:15:35;11.65;;;4.78;;
43857;SDS011;29507;51.284;5.758;2023-06-14T00:18:01;9.45;;;5.47;;
43857;SDS011;29507;51.284;5.758;2023-06-14T00:20:27;11.23;;;5.32;;
43857;SDS011;29507;51.284;5.758;2023-06-14T00:22:54;14.00;;;6.07;;
43857;SDS011;29507;51.284;5.758;2023-06-14T00:25:21;11.45;;;5.20;;
43857;SDS011;29507;51.284;5.758;2023-06-14T00:27:51;9.23;;;4.93;;
43857;SDS011;29507;51.284;5.758;2023-06-14T00:30:18;9.45;;;5.60;;
43857;SDS011;29507;51.284;5.758;2023-06-14T00:32:44;10.20;;;6.20;;
43857;SDS011;29507;51.284;5.758;2023-06-14T00:35:10;8.20;;;6.20;;
43857;SDS011;29507;51.284;5.758;2023-06-14T00:37:36;13.15;;;6.70;;
43857;SDS011;29507;51.284;5.758;2023-06-14T00:40:02;10.18;;;5.35;;
43857;SDS011;29507;51.284;5.758;2023-06-14T00:42:30;9.05;;;5.50;;
43857;SDS011;29507;51.284;5.758;2023-06-14T00:44:56;9.25;;;5.93;;
43857;SDS011;29507;51.284;5.758;2023-06-14T00:47:22;8.85;;;5.63;;
43857;SDS011;29507;51.284;5.758;2023-06-14T00:49:48;10.20;;;5.63;;
43857;SDS011;29507;51.284;5.758;2023-06-14T00:52:18;11.05;;;5.53;;
43857;SDS011;29507;51.284;5.758;2023-06-14T00:54:44;9.85;;;5.30;;
43857;SDS011;29507;51.284;5.758;2023-06-14T00:57:10;11.00;;;6.72;;
43857;SDS011;29507;51.284;5.758;2023-06-14T00:59:47;10.43;;;5.72;;
43857;SDS011;29507;51.284;5.758;2023-06-14T01:02:13;9.43;;;6.07;;
43857;SDS011;29507;51.284;5.758;2023-06-14T01:04:40;10.23;;;6.15;;
43857;SDS011;29507;51.284;5.758;2023-06-14T01:07:12;11.07;;;5.68;;
43857;SDS011;29507;51.284;5.758;2023-06-14T01:12:16;10.02;;;5.95;;
43857;SDS011;29507;51.284;5.758;2023-06-14T01:14:49;9.73;;;5.70;;
43857;SDS011;29507;51.284;5.758;2023-06-14T01:17:16;12.95;;;5.40;;
43857;SDS011;29507;51.284;5.758;2023-06-14T01:19:43;8.82;;;5.90;;
43857;SDS011;29507;51.284;5.758;2023-06-14T01:22:09;11.88;;;5.68;;
43857;SDS011;29507;51.284;5.758;2023-06-14T01:24:35;9.13;;;5.93;;
43857;SDS011;29507;51.284;5.758;2023-06-14T01:27:01;9.88;;;5.50;;
43857;SDS011;29507;51.284;5.758;2023-06-14T01:29:28;8.55;;;5.60;;
43857;SDS011;29507;51.284;5.758;2023-06-14T01:31:57;9.25;;;5.75;;
43857;SDS011;29507;51.284;5.758;2023-06-14T01:34:24;10.82;;;6.18;;
43857;SDS011;29507;51.284;5.758;2023-06-14T01:36:50;13.98;;;5.65;;
43857;SDS011;29507;51.284;5.758;2023-06-14T01:39:19;9.35;;;5.75;;
43857;SDS011;29507;51.284;5.758;2023-06-14T01:41:45;11.45;;;6.03;;
43857;SDS011;29507;51.284;5.758;2023-06-14T01:44:12;8.90;;;5.88;;
43857;SDS011;29507;51.284;5.758;2023-06-14T01:46:40;9.85;;;6.03;;
43857;SDS011;29507;51.284;5.758;2023-06-14T01:49:07;14.18;;;6.78;;
43857;SDS011;29507;51.284;5.758;2023-06-14T01:51:33;12.05;;;5.70;;
43857;SDS011;29507;51.284;5.758;2023-06-14T01:53:58;9.40;;;5.65;;
43857;SDS011;29507;51.284;5.758;2023-06-14T01:56:25;13.82;;;6.25;;
43857;SDS011;29507;51.284;5.758;2023-06-14T01:58:52;9.30;;;5.70;;
43857;SDS011;29507;51.284;5.758;2023-06-14T02:01:20;10.43;;;6.53;;
43857;SDS011;29507;51.284;5.758;2023-06-14T02:03:46;10.93;;;6.28;;
43857;SDS011;29507;51.284;5.758;2023-06-14T02:06:13;14.05;;;7.32;;
43857;SDS011;29507;51.284;5.758;2023-06-14T02:08:40;11.65;;;5.90;;
43857;SDS011;29507;51.284;5.758;2023-06-14T02:11:06;11.45;;;6.13;;
43857;SDS011;29507;51.284;5.758;2023-06-14T02:13:32;13.88;;;5.95;;
43857;SDS011;29507;51.284;5.758;2023-06-14T02:15:58;9.73;;;5.53;;
43857;SDS011;29507;51.284;5.758;2023-06-14T02:18:24;10.93;;;6.03;;
43857;SDS011;29507;51.284;5.758;2023-06-14T02:20:50;10.63;;;5.63;;
43857;SDS011;29507;51.284;5.758;2023-06-14T02:23:15;9.10;;;5.65;;
43857;SDS011;29507;51.284;5.758;2023-06-14T02:25:41;8.23;;;5.03;;
43857;SDS011;29507;51.284;5.758;2023-06-14T02:28:08;11.30;;;5.40;;
43857;SDS011;29507;51.284;5.758;2023-06-14T02:30:33;9.95;;;5.65;;
43857;SDS011;29507;51.284;5.758;2023-06-14T02:32:59;11.02;;;4.95;;
43857;SDS011;29507;51.284;5.758;2023-06-14T02:35:25;9.38;;;5.00;;
43857;SDS011;29507;51.284;5.758;2023-06-14T02:37:52;9.40;;;5.13;;
43857;SDS011;29507;51.284;5.758;2023-06-14T02:40:18;16.83;;;5.53;;
43857;SDS011;29507;51.284;5.758;2023-06-14T02:42:44;8.98;;;5.22;;
43857;SDS011;29507;51.284;5.758;2023-06-14T02:45:10;9.63;;;4.85;;
43857;SDS011;29507;51.284;5.758;2023-06-14T02:47:36;7.85;;;4.45;;
43857;SDS011;29507;51.284;5.758;2023-06-14T02:50:01;9.77;;;4.80;;
43857;SDS011;29507;51.284;5.758;2023-06-14T02:52:27;10.05;;;5.20;;
43857;SDS011;29507;51.284;5.758;2023-06-14T02:54:53;11.75;;;5.63;;
43857;SDS011;29507;51.284;5.758;2023-06-14T02:57:19;12.63;;;5.20;;
43857;SDS011;29507;51.284;5.758;2023-06-14T02:59:45;9.68;;;5.10;;
43857;SDS011;29507;51.284;5.758;2023-06-14T03:02:11;13.48;;;4.82;;
43857;SDS011;29507;51.284;5.758;2023-06-14T03:04:36;9.10;;;5.05;;
43857;SDS011;29507;51.284;5.758;2023-06-14T03:07:02;7.45;;;4.70;;
43857;SDS011;29507;51.284;5.758;2023-06-14T03:09:34;7.25;;;4.30;;
43857;SDS011;29507;51.284;5.758;2023-06-14T03:12:02;10.48;;;4.95;;
43857;SDS011;29507;51.284;5.758;2023-06-14T03:14:28;9.70;;;5.20;;
43857;SDS011;29507;51.284;5.758;2023-06-14T03:16:55;8.70;;;5.03;;
43857;SDS011;29507;51.284;5.758;2023-06-14T03:19:22;9.00;;;5.18;;
43857;SDS011;29507;51.284;5.758;2023-06-14T03:21:48;7.72;;;4.43;;
43857;SDS011;29507;51.284;5.758;2023-06-14T03:24:14;8.45;;;4.55;;
43857;SDS011;29507;51.284;5.758;2023-06-14T03:26:41;9.85;;;4.95;;
43857;SDS011;29507;51.284;5.758;2023-06-14T03:29:07;8.43;;;4.47;;
43857;SDS011;29507;51.284;5.758;2023-06-14T03:31:34;11.32;;;4.82;;
43857;SDS011;29507;51.284;5.758;2023-06-14T03:33:59;8.82;;;4.88;;
43857;SDS011;29507;51.284;5.758;2023-06-14T03:36:28;7.97;;;4.50;;
43857;SDS011;29507;51.284;5.758;2023-06-14T03:38:53;9.75;;;4.47;;
43857;SDS011;29507;51.284;5.758;2023-06-14T03:41:20;10.52;;;5.18;;
43857;SDS011;29507;51.284;5.758;2023-06-14T03:43:46;10.32;;;4.70;;
43857;SDS011;29507;51.284;5.758;2023-06-14T03:46:11;12.57;;;5.25;;
43857;SDS011;29507;51.284;5.758;2023-06-14T03:48:37;7.57;;;4.63;;
43857;SDS011;29507;51.284;5.758;2023-06-14T03:51:03;9.40;;;5.10;;
43857;SDS011;29507;51.284;5.758;2023-06-14T03:53:29;7.65;;;4.07;;
43857;SDS011;29507;51.284;5.758;2023-06-14T03:55:55;5.85;;;4.35;;
43857;SDS011;29507;51.284;5.758;2023-06-14T03:58:22;9.25;;;4.30;;
43857;SDS011;29507;51.284;5.758;2023-06-14T04:00:48;8.27;;;4.20;;
43857;SDS011;29507;51.284;5.758;2023-06-14T04:03:13;9.43;;;4.72;;
43857;SDS011;29507;51.284;5.758;2023-06-14T04:05:40;7.82;;;4.20;;
43857;SDS011;29507;51.284;5.758;2023-06-14T04:08:07;10.93;;;4.40;;
43857;SDS011;29507;51.284;5.758;2023-06-14T04:10:34;9.23;;;4.25;;
43857;SDS011;29507;51.284;5.758;2023-06-14T04:13:00;7.97;;;5.00;;
43857;SDS011;29507;51.284;5.758;2023-06-14T04:15:25;8.05;;;4.88;;
43857;SDS011;29507;51.284;5.758;2023-06-14T04:17:53;8.30;;;4.38;;
43857;SDS011;29507;51.284;5.758;2023-06-14T04:20:22;10.63;;;4.70;;
43857;SDS011;29507;51.284;5.758;2023-06-14T04:22:49;11.95;;;4.57;;
43857;SDS011;29507;51.284;5.758;2023-06-14T04:25:15;8.10;;;4.85;;
43857;SDS011;29507;51.284;5.758;2023-06-14T04:27:41;11.25;;;4.88;;
43857;SDS011;29507;51.284;5.758;2023-06-14T04:30:07;7.35;;;4.10;;
43857;SDS011;29507;51.284;5.758;2023-06-14T04:32:33;7.13;;;3.83;;
43857;SDS011;29507;51.284;5.758;2023-06-14T04:34:59;7.03;;;3.85;;
43857;SDS011;29507;51.284;5.758;2023-06-14T04:37:28;8.68;;;4.18;;
43857;SDS011;29507;51.284;5.758;2023-06-14T04:39:55;8.13;;;4.07;;
43857;SDS011;29507;51.284;5.758;2023-06-14T04:42:22;6.80;;;3.65;;
43857;SDS011;29507;51.284;5.758;2023-06-14T04:44:50;8.93;;;4.53;;
43857;SDS011;29507;51.284;5.758;2023-06-14T04:47:16;8.02;;;4.07;;
43857;SDS011;29507;51.284;5.758;2023-06-14T04:49:42;7.90;;;3.95;;
43857;SDS011;29507;51.284;5.758;2023-06-14T04:52:08;8.38;;;4.03;;
43857;SDS011;29507;51.284;5.758;2023-06-14T04:54:35;8.57;;;4.10;;
43857;SDS011;29507;51.284;5.758;2023-06-14T04:57:03;6.88;;;4.10;;
43857;SDS011;29507;51.284;5.758;2023-06-14T04:59:30;7.55;;;3.83;;
43857;SDS011;29507;51.284;5.758;2023-06-14T05:01:58;6.22;;;3.50;;
43857;SDS011;29507;51.284;5.758;2023-06-14T05:04:25;13.55;;;5.22;;
43857;SDS011;29507;51.284;5.758;2023-06-14T05:06:52;9.68;;;3.95;;
43857;SDS011;29507;51.284;5.758;2023-06-14T05:09:19;12.55;;;4.20;;
43857;SDS011;29507;51.284;5.758;2023-06-14T05:11:46;8.13;;;4.35;;
43857;SDS011;29507;51.284;5.758;2023-06-14T05:14:12;5.30;;;4.07;;
43857;SDS011;29507;51.284;5.758;2023-06-14T05:16:39;8.75;;;4.35;;
43857;SDS011;29507;51.284;5.758;2023-06-14T05:19:05;7.22;;;4.13;;
43857;SDS011;29507;51.284;5.758;2023-06-14T05:21:31;8.40;;;4.60;;
43857;SDS011;29507;51.284;5.758;2023-06-14T05:23:58;7.75;;;4.88;;
43857;SDS011;29507;51.284;5.758;2023-06-14T05:26:24;7.70;;;3.97;;
43857;SDS011;29507;51.284;5.758;2023-06-14T05:28:53;9.07;;;4.32;;
43857;SDS011;29507;51.284;5.758;2023-06-14T05:31:21;8.60;;;4.38;;
43857;SDS011;29507;51.284;5.758;2023-06-14T05:33:50;8.02;;;3.83;;
43857;SDS011;29507;51.284;5.758;2023-06-14T05:36:17;10.43;;;4.53;;
43857;SDS011;29507;51.284;5.758;2023-06-14T05:38:43;9.77;;;4.65;;
43857;SDS011;29507;51.284;5.758;2023-06-14T05:41:10;9.93;;;4.75;;
43857;SDS011;29507;51.284;5.758;2023-06-14T05:43:35;13.15;;;5.30;;
43857;SDS011;29507;51.284;5.758;2023-06-14T05:46:01;8.95;;;5.13;;
43857;SDS011;29507;51.284;5.758;2023-06-14T05:48:27;12.63;;;4.30;;
43857;SDS011;29507;51.284;5.758;2023-06-14T05:50:53;10.30;;;4.28;;
43857;SDS011;29507;51.284;5.758;2023-06-14T05:53:19;9.25;;;4.72;;
43857;SDS011;29507;51.284;5.758;2023-06-14T05:55:44;7.75;;;4.28;;
43857;SDS011;29507;51.284;5.758;2023-06-14T05:58:10;9.73;;;4.22;;
43857;SDS011;29507;51.284;5.758;2023-06-14T06:00:36;14.55;;;4.45;;
43857;SDS011;29507;51.284;5.758;2023-06-14T06:03:01;7.10;;;3.75;;
43857;SDS011;29507;51.284;5.758;2023-06-14T06:05:27;7.35;;;3.72;;
43857;SDS011;29507;51.284;5.758;2023-06-14T06:07:52;6.97;;;4.22;;
43857;SDS011;29507;51.284;5.758;2023-06-14T06:10:18;8.18;;;3.90;;
43857;SDS011;29507;51.284;5.758;2023-06-14T06:12:44;12.18;;;3.42;;
43857;SDS011;29507;51.284;5.758;2023-06-14T06:15:09;7.07;;;3.17;;
43857;SDS011;29507;51.284;5.758;2023-06-14T06:17:37;5.68;;;3.75;;
43857;SDS011;29507;51.284;5.758;2023-06-14T06:20:04;6.70;;;3.33;;
43857;SDS011;29507;51.284;5.758;2023-06-14T06:22:33;7.68;;;3.33;;
43857;SDS011;29507;51.284;5.758;2023-06-14T06:24:59;7.80;;;4.20;;
43857;SDS011;29507;51.284;5.758;2023-06-14T06:27:24;6.68;;;3.55;;
43857;SDS011;29507;51.284;5.758;2023-06-14T06:29:50;7.22;;;3.15;;
43857;SDS011;29507;51.284;5.758;2023-06-14T06:32:16;5.22;;;2.75;;
43857;SDS011;29507;51.284;5.758;2023-06-14T06:34:42;6.70;;;3.60;;
43857;SDS011;29507;51.284;5.758;2023-06-14T06:37:08;5.43;;;2.80;;
43857;SDS011;29507;51.284;5.758;2023-06-14T06:39:34;7.25;;;3.42;;
43857;SDS011;29507;51.284;5.758;2023-06-14T06:42:00;12.10;;;3.72;;
43857;SDS011;29507;51.284;5.758;2023-06-14T06:44:25;7.80;;;3.38;;
43857;SDS011;29507;51.284;5.758;2023-06-14T06:46:51;6.22;;;3.55;;
43857;SDS011;29507;51.284;5.758;2023-06-14T06:49:19;5.70;;;3.20;;
43857;SDS011;29507;51.284;5.758;2023-06-14T06:51:58;9.63;;;2.90;;
43857;SDS011;29507;51.284;5.758;2023-06-14T06:54:25;7.70;;;2.83;;
43857;SDS011;29507;51.284;5.758;2023-06-14T06:56:51;4.47;;;2.70;;
43857;SDS011;29507;51.284;5.758;2023-06-14T06:59:17;6.90;;;2.85;;
43857;SDS011;29507;51.284;5.758;2023-06-14T07:01:42;9.82;;;2.90;;
43857;SDS011;29507;51.284;5.758;2023-06-14T07:04:08;11.13;;;2.90;;
43857;SDS011;29507;51.284;5.758;2023-06-14T07:06:33;5.95;;;2.83;;
43857;SDS011;29507;51.284;5.758;2023-06-14T07:08:59;5.47;;;2.70;;
43857;SDS011;29507;51.284;5.758;2023-06-14T07:11:26;6.82;;;2.45;;
43857;SDS011;29507;51.284;5.758;2023-06-14T07:13:52;10.02;;;2.65;;
43857;SDS011;29507;51.284;5.758;2023-06-14T07:16:18;9.90;;;3.50;;
43857;SDS011;29507;51.284;5.758;2023-06-14T07:18:43;8.10;;;2.75;;
43857;SDS011;29507;51.284;5.758;2023-06-14T07:21:09;4.57;;;2.42;;
43857;SDS011;29507;51.284;5.758;2023-06-14T07:23:35;9.02;;;2.80;;
43857;SDS011;29507;51.284;5.758;2023-06-14T07:26:01;6.43;;;2.67;;
43857;SDS011;29507;51.284;5.758;2023-06-14T07:28:26;8.50;;;3.25;;
43857;SDS011;29507;51.284;5.758;2023-06-14T07:30:52;5.38;;;2.63;;
43857;SDS011;29507;51.284;5.758;2023-06-14T07:33:17;5.53;;;2.65;;
43857;SDS011;29507;51.284;5.758;2023-06-14T07:35:43;6.88;;;2.88;;
43857;SDS011;29507;51.284;5.758;2023-06-14T07:38:09;5.63;;;2.38;;
43857;SDS011;29507;51.284;5.758;2023-06-14T07:40:34;7.47;;;2.65;;
43857;SDS011;29507;51.284;5.758;2023-06-14T07:43:00;7.68;;;3.20;;
43857;SDS011;29507;51.284;5.758;2023-06-14T07:45:27;6.63;;;2.70;;
43857;SDS011;29507;51.284;5.758;2023-06-14T07:47:52;11.88;;;2.58;;
43857;SDS011;29507;51.284;5.758;2023-06-14T07:50:18;5.18;;;2.72;;
43857;SDS011;29507;51.284;5.758;2023-06-14T07:52:44;9.52;;;2.63;;
43857;SDS011;29507;51.284;5.758;2023-06-14T07:55:10;17.00;;;3.05;;
43857;SDS011;29507;51.284;5.758;2023-06-14T07:57:36;9.13;;;2.58;;
43857;SDS011;29507;51.284;5.758;2023-06-14T08:00:02;7.47;;;2.70;;
43857;SDS011;29507;51.284;5.758;2023-06-14T08:02:31;5.47;;;2.17;;
43857;SDS011;29507;51.284;5.758;2023-06-14T08:04:56;16.42;;;3.75;;
43857;SDS011;29507;51.284;5.758;2023-06-14T08:07:23;4.85;;;2.10;;
43857;SDS011;29507;51.284;5.758;2023-06-14T08:09:49;5.07;;;2.20;;
43857;SDS011;29507;51.284;5.758;2023-06-14T08:12:15;6.85;;;2.35;;
43857;SDS011;29507;51.284;5.758;2023-06-14T08:14:41;4.38;;;2.15;;
43857;SDS011;29507;51.284;5.758;2023-06-14T08:17:07;3.90;;;2.25;;
43857;SDS011;29507;51.284;5.758;2023-06-14T08:19:33;5.78;;;2.13;;
43857;SDS011;29507;51.284;5.758;2023-06-14T08:21:59;6.55;;;2.38;;
43857;SDS011;29507;51.284;5.758;2023-06-14T08:24:25;4.28;;;2.00;;
43857;SDS011;29507;51.284;5.758;2023-06-14T08:26:51;6.63;;;1.95;;
43857;SDS011;29507;51.284;5.758;2023-06-14T08:29:21;5.45;;;1.95;;
43857;SDS011;29507;51.284;5.758;2023-06-14T08:31:47;5.43;;;1.90;;
43857;SDS011;29507;51.284;5.758;2023-06-14T08:34:13;4.03;;;2.05;;
43857;SDS011;29507;51.284;5.758;2023-06-14T08:36:38;5.53;;;1.85;;
43857;SDS011;29507;51.284;5.758;2023-06-14T08:39:04;7.75;;;1.83;;
43857;SDS011;29507;51.284;5.758;2023-06-14T08:41:30;3.80;;;1.92;;
43857;SDS011;29507;51.284;5.758;2023-06-14T08:43:56;3.78;;;1.60;;
43857;SDS011;29507;51.284;5.758;2023-06-14T08:46:22;3.50;;;1.88;;
43857;SDS011;29507;51.284;5.758;2023-06-14T08:48:52;4.93;;;1.95;;
43857;SDS011;29507;51.284;5.758;2023-06-14T08:51:20;3.65;;;1.80;;
43857;SDS011;29507;51.284;5.758;2023-06-14T08:53:49;3.85;;;1.90;;
43857;SDS011;29507;51.284;5.758;2023-06-14T08:56:26;4.28;;;1.52;;
43857;SDS011;29507;51.284;5.758;2023-06-14T08:58:55;4.75;;;1.88;;
43857;SDS011;29507;51.284;5.758;2023-06-14T09:01:23;3.67;;;1.70;;
43857;SDS011;29507;51.284;5.758;2023-06-14T09:03:49;4.20;;;1.70;;
43857;SDS011;29507;51.284;5.758;2023-06-14T09:06:15;5.78;;;1.73;;
43857;SDS011;29507;51.284;5.758;2023-06-14T09:08:41;4.93;;;1.52;;
43857;SDS011;29507;51.284;5.758;2023-06-14T09:11:11;3.55;;;1.08;;
43857;SDS011;29507;51.284;5.758;2023-06-14T09:13:40;4.63;;;1.55;;
43857;SDS011;29507;51.284;5.758;2023-06-14T09:16:07;2.35;;;1.20;;
43857;SDS011;29507;51.284;5.758;2023-06-14T09:18:36;4.70;;;1.35;;
43857;SDS011;29507;51.284;5.758;2023-06-14T09:21:03;5.82;;;1.35;;
43857;SDS011;29507;51.284;5.758;2023-06-14T09:23:33;1.52;;;0.80;;
43857;SDS011;29507;51.284;5.758;2023-06-14T09:26:05;3.97;;;1.05;;
43857;SDS011;29507;51.284;5.758;2023-06-14T09:28:32;2.78;;;1.17;;
43857;SDS011;29507;51.284;5.758;2023-06-14T09:30:57;3.58;;;0.95;;
43857;SDS011;29507;51.284;5.758;2023-06-14T09:33:23;1.98;;;0.98;;
43857;SDS011;29507;51.284;5.758;2023-06-14T09:35:51;3.10;;;0.90;;
43857;SDS011;29507;51.284;5.758;2023-06-14T09:38:17;4.20;;;1.27;;
43857;SDS011;29507;51.284;5.758;2023-06-14T09:40:43;2.22;;;1.00;;
43857;SDS011;29507;51.284;5.758;2023-06-14T09:43:08;1.95;;;0.60;;
43857;SDS011;29507;51.284;5.758;2023-06-14T09:45:34;3.03;;;0.80;;
43857;SDS011;29507;51.284;5.758;2023-06-14T09:48:00;2.70;;;0.95;;
43857;SDS011;29507;51.284;5.758;2023-06-14T09:50:27;4.50;;;1.33;;
43857;SDS011;29507;51.284;5.758;2023-06-14T09:52:52;3.13;;;0.90;;
43857;SDS011;29507;51.284;5.758;2023-06-14T09:55:24;1.88;;;0.80;;
43857;SDS011;29507;51.284;5.758;2023-06-14T09:57:53;2.08;;;0.80;;
43857;SDS011;29507;51.284;5.758;2023-06-14T10:00:21;3.80;;;1.27;;
43857;SDS011;29507;51.284;5.758;2023-06-14T10:02:51;2.50;;;0.80;;
43857;SDS011;29507;51.284;5.758;2023-06-14T10:05:23;2.35;;;0.90;;
43857;SDS011;29507;51.284;5.758;2023-06-14T10:07:54;4.07;;;1.00;;
43857;SDS011;29507;51.284;5.758;2023-06-14T10:10:24;2.55;;;0.93;;
43857;SDS011;29507;51.284;5.758;2023-06-14T10:12:50;4.57;;;1.08;;
43857;SDS011;29507;51.284;5.758;2023-06-14T10:15:38;4.28;;;1.20;;
43857;SDS011;29507;51.284;5.758;2023-06-14T10:24:07;4.60;;;1.55;;
43857;SDS011;29507;51.284;5.758;2023-06-14T10:26:35;9.45;;;2.35;;
43857;SDS011;29507;51.284;5.758;2023-06-14T10:29:22;2.00;;;0.90;;
43857;SDS011;29507;51.284;5.758;2023-06-14T10:31:49;2.65;;;1.15;;
43857;SDS011;29507;51.284;5.758;2023-06-14T10:34:25;6.03;;;1.10;;
43857;SDS011;29507;51.284;5.758;2023-06-14T10:39:28;3.45;;;1.20;;
43857;SDS011;29507;51.284;5.758;2023-06-14T10:41:55;3.20;;;1.20;;
43857;SDS011;29507;51.284;5.758;2023-06-14T10:49:43;5.22;;;1.00;;
43857;SDS011;29507;51.284;5.758;2023-06-14T10:52:11;3.47;;;1.00;;
43857;SDS011;29507;51.284;5.758;2023-06-14T10:57:29;3.45;;;1.08;;
43857;SDS011;29507;51.284;5.758;2023-06-14T10:59:56;2.40;;;0.90;;
43857;SDS011;29507;51.284;5.758;2023-06-14T11:05:49;4.15;;;1.38;;
43857;SDS011;29507;51.284;5.758;2023-06-14T11:10:48;3.78;;;1.27;;
43857;SDS011;29507;51.284;5.758;2023-06-14T11:13:18;2.60;;;1.05;;
43857;SDS011;29507;51.284;5.758;2023-06-14T11:15:45;4.47;;;1.08;;
43857;SDS011;29507;51.284;5.758;2023-06-14T11:18:17;2.22;;;1.10;;
43857;SDS011;29507;51.284;5.758;2023-06-14T11:20:45;3.00;;;1.00;;
43857;SDS011;29507;51.284;5.758;2023-06-14T11:23:13;2.28;;;1.23;;
43857;SDS011;29507;51.284;5.758;2023-06-14T11:25:39;4.35;;;1.30;;
43857;SDS011;29507;51.284;5.758;2023-06-14T11:28:05;3.35;;;1.50;;
43857;SDS011;29507;51.284;5.758;2023-06-14T11:30:31;5.15;;;1.15;;
43857;SDS011;29507;51.284;5.758;2023-06-14T11:32:57;4.40;;;1.30;;
43857;SDS011;29507;51.284;5.758;2023-06-14T11:35:22;3.75;;;1.10;;
43857;SDS011;29507;51.284;5.758;2023-06-14T11:37:48;2.50;;;1.05;;
43857;SDS011;29507;51.284;5.758;2023-06-14T11:40:17;3.05;;;1.08;;
43857;SDS011;29507;51.284;5.758;2023-06-14T11:42:43;2.97;;;0.90;;
43857;SDS011;29507;51.284;5.758;2023-06-14T11:45:09;5.03;;;0.98;;
43857;SDS011;29507;51.284;5.758;2023-06-14T11:47:36;4.07;;;0.90;;
43857;SDS011;29507;51.284;5.758;2023-06-14T11:50:04;3.72;;;0.60;;
43857;SDS011;29507;51.284;5.758;2023-06-14T11:52:31;2.95;;;1.10;;
43857;SDS011;29507;51.284;5.758;2023-06-14T11:54:57;4.07;;;0.95;;
43857;SDS011;29507;51.284;5.758;2023-06-14T11:57:24;4.65;;;1.55;;
43857;SDS011;29507;51.284;5.758;2023-06-14T11:59:50;2.90;;;1.27;;
43857;SDS011;29507;51.284;5.758;2023-06-14T12:02:16;4.28;;;0.80;;
43857;SDS011;29507;51.284;5.758;2023-06-14T12:04:43;2.45;;;1.02;;
43857;SDS011;29507;51.284;5.758;2023-06-14T12:07:12;1.98;;;0.95;;
43857;SDS011;29507;51.284;5.758;2023-06-14T12:09:42;2.45;;;1.02;;
43857;SDS011;29507;51.284;5.758;2023-06-14T12:12:31;4.28;;;0.90;;
43857;SDS011;29507;51.284;5.758;2023-06-14T12:15:03;2.75;;;0.98;;
43857;SDS011;29507;51.284;5.758;2023-06-14T12:17:33;2.73;;;0.77;;
43857;SDS011;29507;51.284;5.758;2023-06-14T12:20:04;5.03;;;1.10;;
43857;SDS011;29507;51.284;5.758;2023-06-14T12:28:04;3.20;;;1.00;;
43857;SDS011;29507;51.284;5.758;2023-06-14T12:30:31;2.55;;;1.08;;
43857;SDS011;29507;51.284;5.758;2023-06-14T12:32:56;3.63;;;0.85;;
43857;SDS011;29507;51.284;5.758;2023-06-14T12:35:22;2.10;;;0.85;;
43857;SDS011;29507;51.284;5.758;2023-06-14T12:37:48;2.55;;;1.05;;
43857;SDS011;29507;51.284;5.758;2023-06-14T12:40:14;1.88;;;0.80;;
43857;SDS011;29507;51.284;5.758;2023-06-14T12:42:40;7.07;;;1.20;;
43857;SDS011;29507;51.284;5.758;2023-06-14T12:45:06;2.10;;;0.80;;
43857;SDS011;29507;51.284;5.758;2023-06-14T12:47:31;3.90;;;0.93;;
43857;SDS011;29507;51.284;5.758;2023-06-14T12:49:57;2.92;;;1.00;;
43857;SDS011;29507;51.284;5.758;2023-06-14T12:52:23;2.63;;;0.70;;
43857;SDS011;29507;51.284;5.758;2023-06-14T12:54:49;2.13;;;0.88;;
43857;SDS011;29507;51.284;5.758;2023-06-14T12:57:15;2.13;;;0.90;;
43857;SDS011;29507;51.284;5.758;2023-06-14T12:59:40;3.80;;;0.90;;
43857;SDS011;29507;51.284;5.758;2023-06-14T13:02:16;2.35;;;0.77;;
43857;SDS011;29507;51.284;5.758;2023-06-14T13:04:42;1.90;;;0.60;;
43857;SDS011;29507;51.284;5.758;2023-06-14T13:07:08;4.60;;;0.75;;
43857;SDS011;29507;51.284;5.758;2023-06-14T13:09:35;3.05;;;0.50;;
43857;SDS011;29507;51.284;5.758;2023-06-14T13:12:02;4.28;;;0.70;;
43857;SDS011;29507;51.284;5.758;2023-06-14T13:14:28;1.45;;;0.70;;
43857;SDS011;29507;51.284;5.758;2023-06-14T13:16:53;4.55;;;0.80;;
43857;SDS011;29507;51.284;5.758;2023-06-14T13:19:20;1.40;;;0.68;;
43857;SDS011;29507;51.284;5.758;2023-06-14T13:21:46;4.07;;;0.80;;
43857;SDS011;29507;51.284;5.758;2023-06-14T13:24:11;5.20;;;0.93;;
43857;SDS011;29507;51.284;5.758;2023-06-14T13:26:37;1.98;;;0.77;;
43857;SDS011;29507;51.284;5.758;2023-06-14T13:29:02;1.85;;;0.77;;
43857;SDS011;29507;51.284;5.758;2023-06-14T13:31:28;4.13;;;0.90;;
43857;SDS011;29507;51.284;5.758;2023-06-14T13:33:54;4.28;;;0.75;;
43857;SDS011;29507;51.284;5.758;2023-06-14T13:36:20;3.05;;;1.13;;
43857;SDS011;29507;51.284;5.758;2023-06-14T13:38:45;3.90;;;0.70;;
43857;SDS011;29507;51.284;5.758;2023-06-14T13:41:11;4.45;;;0.70;;
43857;SDS011;29507;51.284;5.758;2023-06-14T13:43:36;1.98;;;0.70;;
43857;SDS011;29507;51.284;5.758;2023-06-14T13:46:02;4.03;;;0.73;;
43857;SDS011;29507;51.284;5.758;2023-06-14T13:48:28;4.13;;;0.80;;
43857;SDS011;29507;51.284;5.758;2023-06-14T13:50:53;2.13;;;0.57;;
43857;SDS011;29507;51.284;5.758;2023-06-14T13:53:19;3.47;;;0.70;;
43857;SDS011;29507;51.284;5.758;2023-06-14T13:55:45;3.10;;;0.98;;
43857;SDS011;29507;51.284;5.758;2023-06-14T13:58:10;2.75;;;0.70;;
43857;SDS011;29507;51.284;5.758;2023-06-14T14:00:36;2.38;;;0.70;;
43857;SDS011;29507;51.284;5.758;2023-06-14T14:03:05;1.83;;;0.80;;
43857;SDS011;29507;51.284;5.758;2023-06-14T14:05:31;2.97;;;0.90;;
43857;SDS011;29507;51.284;5.758;2023-06-14T14:07:57;2.70;;;0.80;;
43857;SDS011;29507;51.284;5.758;2023-06-14T14:10:24;1.65;;;0.80;;
43857;SDS011;29507;51.284;5.758;2023-06-14T14:12:50;2.45;;;0.60;;
43857;SDS011;29507;51.284;5.758;2023-06-14T14:15:19;2.53;;;0.75;;
43857;SDS011;29507;51.284;5.758;2023-06-14T14:17:45;3.13;;;0.60;;
43857;SDS011;29507;51.284;5.758;2023-06-14T14:20:12;2.03;;;0.90;;
43857;SDS011;29507;51.284;5.758;2023-06-14T14:22:40;3.50;;;0.68;;
43857;SDS011;29507;51.284;5.758;2023-06-14T14:25:11;1.90;;;0.70;;
43857;SDS011;29507;51.284;5.758;2023-06-14T14:27:37;3.42;;;0.93;;
43857;SDS011;29507;51.284;5.758;2023-06-14T14:30:03;4.55;;;0.70;;
43857;SDS011;29507;51.284;5.758;2023-06-14T14:32:29;4.25;;;0.75;;
43857;SDS011;29507;51.284;5.758;2023-06-14T14:34:55;2.92;;;0.70;;
43857;SDS011;29507;51.284;5.758;2023-06-14T14:37:20;3.20;;;0.70;;
43857;SDS011;29507;51.284;5.758;2023-06-14T14:39:46;3.72;;;0.93;;
43857;SDS011;29507;51.284;5.758;2023-06-14T14:42:12;3.47;;;0.65;;
43857;SDS011;29507;51.284;5.758;2023-06-14T14:44:38;4.03;;;1.00;;
43857;SDS011;29507;51.284;5.758;2023-06-14T14:47:04;2.15;;;0.75;;
43857;SDS011;29507;51.284;5.758;2023-06-14T14:49:30;3.50;;;0.80;;
43857;SDS011;29507;51.284;5.758;2023-06-14T14:51:56;3.85;;;1.10;;
43857;SDS011;29507;51.284;5.758;2023-06-14T14:54:22;3.15;;;1.20;;
43857;SDS011;29507;51.284;5.758;2023-06-14T14:56:51;4.03;;;0.80;;
43857;SDS011;29507;51.284;5.758;2023-06-14T14:59:16;3.88;;;0.98;;
43857;SDS011;29507;51.284;5.758;2023-06-14T15:01:43;3.38;;;0.77;;
43857;SDS011;29507;51.284;5.758;2023-06-14T15:04:39;2.58;;;0.73;;
43857;SDS011;29507;51.284;5.758;2023-06-14T15:07:11;6.32;;;0.85;;
43857;SDS011;29507;51.284;5.758;2023-06-14T15:09:55;3.85;;;1.42;;
43857;SDS011;29507;51.284;5.758;2023-06-14T15:12:28;5.00;;;1.42;;
43857;SDS011;29507;51.284;5.758;2023-06-14T15:14:54;2.55;;;1.00;;